sensor_id;sensor_type;location;lat;lon;timestamp;pressure;altitude;pressure_sealevel;temperature;humidity
4598;BME280;62772;48.646;8.906;2023-05-16T00:03:03;95958.88;;;10.83;100.00
4598;BME280;62772;48.646;8.906;2023-05-16T00:08:04;95952.72;;;10.91;100.00
4598;BME280;62772;48.646;8.906;2023-05-16T00:13:04;95959.09;;;10.69;100.00
4598;BME280;62772;48.646;8.906;2023-05-16T00:18:06;95954.66;;;10.82;100.00
4598;BME280;62772;48.646;8.906;2023-05-16T00:23:06;95960.84;;;10.56;100.00
4598;BME280;62772;48.646;8.906;2023-05-16T00:28:07;95955.00;;;10.71;100.00
4598;BME280;62772;48.646;8.906;2023-05-16T00:33:08;95946.47;;;10.87;100.00
4598;BME280;62772;48.646;8.906;2023-05-16T00:38:08;95949.97;;;10.79;100.00
4598;BME280;62772;48.646;8.906;2023-05-16T00:43:08;95950.50;;;10.46;100.00
4598;BME280;62772;48.646;8.906;2023-05-16T00:48:11;95949.25;;;10.26;100.00
4598;BME280;62772;48.646;8.906;2023-05-16T00:53:12;95941.72;;;10.28;100.00
4598;BME280;62772;48.646;8.906;2023-05-16T00:58:12;95945.19;;;10.11;100.00
4598;BME280;62772;48.646;8.906;2023-05-16T01:03:13;95937.78;;;10.25;100.00
4598;BME280;62772;48.646;8.906;2023-05-16T01:08:14;95948.97;;;10.19;100.00
4598;BME280;62772;48.646;8.906;2023-05-16T01:13:26;95948.94;;;10.27;100.00
4598;BME280;62772;48.646;8.906;2023-05-16T01:18:46;95946.63;;;9.99;100.00
4598;BME280;62772;48.646;8.906;2023-05-16T01:24:03;95941.13;;;9.96;100.00
4598;BME280;62772;48.646;8.906;2023-05-16T01:29:07;95944.09;;;9.68;100.00
4598;BME280;62772;48.646;8.906;2023-05-16T01:34:08;95959.16;;;9.73;100.00
4598;BME280;62772;48.646;8.906;2023-05-16T01:39:29;95951.47;;;9.71;100.00
4598;BME280;62772;48.646;8.906;2023-05-16T01:44:36;95953.03;;;9.72;100.00
4598;BME280;62772;48.646;8.906;2023-05-16T01:55:09;95954.59;;;9.65;100.00
4598;BME280;62772;48.646;8.906;2023-05-16T02:00:11;95956.47;;;9.55;100.00
4598;BME280;62772;48.646;8.906;2023-05-16T02:05:15;95958.19;;;9.69;100.00
4598;BME280;62772;48.646;8.906;2023-05-16T02:10:17;95955.06;;;9.67;100.00
4598;BME280;62772;48.646;8.906;2023-05-16T02:15:17;95954.56;;;9.47;100.00
4598;BME280;62772;48.646;8.906;2023-05-16T02:20:18;95955.19;;;9.53;100.00
4598;BME280;62772;48.646;8.906;2023-05-16T02:25:18;95963.81;;;9.41;100.00
4598;BME280;62772;48.646;8.906;2023-05-16T02:30:19;95961.94;;;9.59;100.00
4598;BME280;62772;48.646;8.906;2023-05-16T02:35:20;95972.13;;;9.39;100.00
4598;BME280;62772;48.646;8.906;2023-05-16T02:40:20;95965.41;;;9.51;100.00
4598;BME280;62772;48.646;8.906;2023-05-16T02:45:21;95964.69;;;9.19;100.00
4598;BME280;62772;48.646;8.906;2023-05-16T02:50:21;95961.47;;;9.39;100.00
4598;BME280;62772;48.646;8.906;2023-05-16T02:55:22;95955.94;;;9.27;100.00
4598;BME280;62772;48.646;8.906;2023-05-16T03:00:22;95959.41;;;9.28;100.00
4598;BME280;62772;48.646;8.906;2023-05-16T03:05:23;95948.88;;;9.22;100.00
4598;BME280;62772;48.646;8.906;2023-05-16T03:10:23;95955.66;;;9.37;100.00
4598;BME280;62772;48.646;8.906;2023-05-16T03:15:23;95958.28;;;9.20;100.00
4598;BME280;62772;48.646;8.906;2023-05-16T03:20:24;95954.50;;;9.12;100.00
4598;BME280;62772;48.646;8.906;2023-05-16T03:25:24;95946.97;;;9.14;100.00
4598;BME280;62772;48.646;8.906;2023-05-16T03:30:25;95953.88;;;9.24;100.00
4598;BME280;62772;48.646;8.906;2023-05-16T03:35:26;95958.72;;;9.13;100.00
4598;BME280;62772;48.646;8.906;2023-05-16T03:40:27;95960.63;;;9.21;100.00
4598;BME280;62772;48.646;8.906;2023-05-16T03:45:29;95955.81;;;9.32;100.00
4598;BME280;62772;48.646;8.906;2023-05-16T03:50:29;95957.97;;;9.30;100.00
4598;BME280;62772;48.646;8.906;2023-05-16T03:55:30;95959.09;;;9.38;100.00
4598;BME280;62772;48.646;8.906;2023-05-16T04:00:30;95955.94;;;9.27;100.00
4598;BME280;62772;48.646;8.906;2023-05-16T04:05:31;95969.44;;;9.31;100.00
4598;BME280;62772;48.646;8.906;2023-05-16T04:10:31;95961.75;;;9.29;100.00
4598;BME280;62772;48.646;8.906;2023-05-16T04:15:32;95972.56;;;9.33;100.00
4598;BME280;62772;48.646;8.906;2023-05-16T04:20:32;95979.75;;;9.15;100.00
4598;BME280;62772;48.646;8.906;2023-05-16T04:25:33;95967.50;;;9.22;100.00
4598;BME280;62772;48.646;8.906;2023-05-16T04:30:34;95976.53;;;9.44;100.00
4598;BME280;62772;48.646;8.906;2023-05-16T04:35:34;95972.28;;;9.34;100.00
4598;BME280;62772;48.646;8.906;2023-05-16T04:40:36;95978.72;;;9.42;100.00
4598;BME280;62772;48.646;8.906;2023-05-16T04:45:37;95981.84;;;9.44;100.00
4598;BME280;62772;48.646;8.906;2023-05-16T04:50:37;95988.47;;;9.55;100.00
4598;BME280;62772;48.646;8.906;2023-05-16T04:55:38;95992.03;;;9.42;100.00
4598;BME280;62772;48.646;8.906;2023-05-16T05:00:38;95999.53;;;9.40;100.00
4598;BME280;62772;48.646;8.906;2023-05-16T05:05:39;95988.09;;;9.31;100.00
4598;BME280;62772;48.646;8.906;2023-05-16T05:10:40;96012.44;;;9.47;100.00
4598;BME280;62772;48.646;8.906;2023-05-16T05:15:41;96017.00;;;9.63;100.00
4598;BME280;62772;48.646;8.906;2023-05-16T05:20:41;96013.25;;;9.65;100.00
4598;BME280;62772;48.646;8.906;2023-05-16T05:25:42;96011.63;;;9.46;100.00
4598;BME280;62772;48.646;8.906;2023-05-16T05:30:43;96018.19;;;9.31;100.00
4598;BME280;62772;48.646;8.906;2023-05-16T05:35:43;96020.72;;;9.36;100.00
4598;BME280;62772;48.646;8.906;2023-05-16T05:40:44;96013.94;;;9.30;100.00
4598;BME280;62772;48.646;8.906;2023-05-16T05:45:45;96014.81;;;9.57;100.00
4598;BME280;62772;48.646;8.906;2023-05-16T05:50:45;96014.75;;;9.39;100.00
4598;BME280;62772;48.646;8.906;2023-05-16T05:55:46;96021.38;;;9.42;100.00
4598;BME280;62772;48.646;8.906;2023-05-16T06:00:46;96031.38;;;9.36;100.00
4598;BME280;62772;48.646;8.906;2023-05-16T06:05:47;96028.00;;;9.13;100.00
4598;BME280;62772;48.646;8.906;2023-05-16T06:10:48;96031.84;;;9.38;100.00
4598;BME280;62772;48.646;8.906;2023-05-16T06:15:50;96041.56;;;9.34;100.00
4598;BME280;62772;48.646;8.906;2023-05-16T06:20:52;96043.94;;;9.44;100.00
4598;BME280;62772;48.646;8.906;2023-05-16T06:25:52;96042.13;;;9.22;100.00
4598;BME280;62772;48.646;8.906;2023-05-16T06:30:52;96048.81;;;9.11;100.00
4598;BME280;62772;48.646;8.906;2023-05-16T06:35:53;96045.53;;;9.14;100.00
4598;BME280;62772;48.646;8.906;2023-05-16T06:40:53;96049.72;;;9.38;100.00
4598;BME280;62772;48.646;8.906;2023-05-16T06:45:54;96057.25;;;9.36;100.00
4598;BME280;62772;48.646;8.906;2023-05-16T06:50:54;96062.28;;;9.46;100.00
4598;BME280;62772;48.646;8.906;2023-05-16T06:55:55;96059.53;;;9.20;100.00
4598;BME280;62772;48.646;8.906;2023-05-16T07:00:55;96065.84;;;9.33;100.00
4598;BME280;62772;48.646;8.906;2023-05-16T07:05:56;96068.28;;;9.20;100.00
4598;BME280;62772;48.646;8.906;2023-05-16T07:10:57;96074.16;;;9.31;100.00
4598;BME280;62772;48.646;8.906;2023-05-16T07:15:58;96076.47;;;9.24;100.00
4598;BME280;62772;48.646;8.906;2023-05-16T07:20:58;96073.88;;;9.41;100.00
4598;BME280;62772;48.646;8.906;2023-05-16T07:25:58;96092.84;;;8.86;100.00
4598;BME280;62772;48.646;8.906;2023-05-16T07:30:59;96092.34;;;8.75;100.00
4598;BME280;62772;48.646;8.906;2023-05-16T07:35:59;96091.41;;;9.02;100.00
4598;BME280;62772;48.646;8.906;2023-05-16T07:41:00;96097.81;;;9.01;100.00
4598;BME280;62772;48.646;8.906;2023-05-16T07:46:01;96104.13;;;8.83;100.00
4598;BME280;62772;48.646;8.906;2023-05-16T07:51:02;96105.03;;;8.78;100.00
4598;BME280;62772;48.646;8.906;2023-05-16T07:56:03;96106.13;;;8.77;100.00
4598;BME280;62772;48.646;8.906;2023-05-16T08:01:04;96099.13;;;8.81;100.00
4598;BME280;62772;48.646;8.906;2023-05-16T08:06:04;96103.72;;;8.89;100.00
4598;BME280;62772;48.646;8.906;2023-05-16T08:11:05;96099.22;;;8.99;100.00
4598;BME280;62772;48.646;8.906;2023-05-16T08:16:06;96114.28;;;9.03;100.00
4598;BME280;62772;48.646;8.906;2023-05-16T08:21:07;96109.63;;;9.09;100.00
4598;BME280;62772;48.646;8.906;2023-05-16T08:26:08;96107.69;;;9.01;100.00
4598;BME280;62772;48.646;8.906;2023-05-16T08:31:08;96113.56;;;9.12;100.00
4598;BME280;62772;48.646;8.906;2023-05-16T08:36:10;96113.97;;;9.28;100.00
4598;BME280;62772;48.646;8.906;2023-05-16T08:41:10;96111.38;;;9.14;100.00
4598;BME280;62772;48.646;8.906;2023-05-16T08:46:11;96117.78;;;9.13;100.00
4598;BME280;62772;48.646;8.906;2023-05-16T08:51:13;96118.31;;;9.23;100.00
4598;BME280;62772;48.646;8.906;2023-05-16T08:56:16;96129.94;;;9.28;100.00
4598;BME280;62772;48.646;8.906;2023-05-16T09:01:17;96123.19;;;8.99;100.00
4598;BME280;62772;48.646;8.906;2023-05-16T09:06:18;96128.06;;;9.28;100.00
4598;BME280;62772;48.646;8.906;2023-05-16T09:11:18;96136.19;;;9.23;100.00
4598;BME280;62772;48.646;8.906;2023-05-16T09:16:19;96142.72;;;9.17;100.00
4598;BME280;62772;48.646;8.906;2023-05-16T09:21:20;96139.88;;;9.44;100.00
4598;BME280;62772;48.646;8.906;2023-05-16T09:26:21;96145.94;;;9.28;100.00
4598;BME280;62772;48.646;8.906;2023-05-16T09:31:25;96141.31;;;9.19;100.00
4598;BME280;62772;48.646;8.906;2023-05-16T09:36:26;96138.50;;;9.47;100.00
4598;BME280;62772;48.646;8.906;2023-05-16T09:41:26;96137.00;;;9.63;100.00
4598;BME280;62772;48.646;8.906;2023-05-16T09:46:27;96134.28;;;9.95;100.00
4598;BME280;62772;48.646;8.906;2023-05-16T09:51:27;96135.09;;;10.04;100.00
4598;BME280;62772;48.646;8.906;2023-05-16T09:56:28;96134.19;;;10.17;100.00
4598;BME280;62772;48.646;8.906;2023-05-16T10:01:29;96128.34;;;10.07;100.00
4598;BME280;62772;48.646;8.906;2023-05-16T10:06:30;96120.69;;;10.14;100.00
4598;BME280;62772;48.646;8.906;2023-05-16T10:11:31;96119.91;;;10.22;100.00
4598;BME280;62772;48.646;8.906;2023-05-16T10:16:32;96130.66;;;9.91;100.00
4598;BME280;62772;48.646;8.906;2023-05-16T10:21:33;96136.00;;;9.91;100.00
4598;BME280;62772;48.646;8.906;2023-05-16T10:26:34;96128.84;;;10.09;100.00
4598;BME280;62772;48.646;8.906;2023-05-16T10:31:36;96133.47;;;9.86;100.00
4598;BME280;62772;48.646;8.906;2023-05-16T10:36:37;96132.09;;;9.97;100.00
4598;BME280;62772;48.646;8.906;2023-05-16T10:41:39;96136.84;;;10.17;100.00
4598;BME280;62772;48.646;8.906;2023-05-16T10:46:39;96135.38;;;9.94;100.00
4598;BME280;62772;48.646;8.906;2023-05-16T10:51:40;96125.63;;;10.47;100.00
4598;BME280;62772;48.646;8.906;2023-05-16T10:56:40;96138.78;;;10.43;100.00
4598;BME280;62772;48.646;8.906;2023-05-16T11:01:42;96129.69;;;10.36;100.00
4598;BME280;62772;48.646;8.906;2023-05-16T11:06:44;96141.06;;;10.10;100.00
4598;BME280;62772;48.646;8.906;2023-05-16T11:16:51;96157.53;;;10.03;100.00
4598;BME280;62772;48.646;8.906;2023-05-16T11:22:04;96157.56;;;10.12;100.00
4598;BME280;62772;48.646;8.906;2023-05-16T11:27:06;96160.84;;;10.09;100.00
4598;BME280;62772;48.646;8.906;2023-05-16T11:32:06;96157.53;;;10.03;100.00
4598;BME280;62772;48.646;8.906;2023-05-16T11:37:09;96163.28;;;9.88;100.00
4598;BME280;62772;48.646;8.906;2023-05-16T11:42:10;96162.03;;;9.94;100.00
4598;BME280;62772;48.646;8.906;2023-05-16T11:47:12;96177.63;;;10.01;100.00
4598;BME280;62772;48.646;8.906;2023-05-16T11:52:13;96177.25;;;9.85;100.00
4598;BME280;62772;48.646;8.906;2023-05-16T11:57:14;96167.06;;;9.95;100.00
4598;BME280;62772;48.646;8.906;2023-05-16T12:02:15;96175.75;;;10.01;100.00
4598;BME280;62772;48.646;8.906;2023-05-16T12:07:16;96180.47;;;10.04;100.00
4598;BME280;62772;48.646;8.906;2023-05-16T12:12:19;96182.31;;;10.04;100.00
4598;BME280;62772;48.646;8.906;2023-05-16T12:17:20;96177.44;;;9.88;100.00
4598;BME280;62772;48.646;8.906;2023-05-16T12:22:21;96192.53;;;10.02;100.00
4598;BME280;62772;48.646;8.906;2023-05-16T12:27:26;96199.59;;;9.97;100.00
4598;BME280;62772;48.646;8.906;2023-05-16T12:32:27;96201.22;;;9.76;100.00
4598;BME280;62772;48.646;8.906;2023-05-16T12:37:27;96205.06;;;9.61;100.00
4598;BME280;62772;48.646;8.906;2023-05-16T12:42:28;96207.44;;;9.17;100.00
4598;BME280;62772;48.646;8.906;2023-05-16T12:47:36;96210.38;;;9.30;100.00
4598;BME280;62772;48.646;8.906;2023-05-16T12:52:38;96211.41;;;9.20;100.00
4598;BME280;62772;48.646;8.906;2023-05-16T12:57:46;96204.34;;;9.01;100.00
4598;BME280;62772;48.646;8.906;2023-05-16T13:02:48;96219.94;;;8.71;100.00
4598;BME280;62772;48.646;8.906;2023-05-16T13:07:49;96218.00;;;8.86;100.00
4598;BME280;62772;48.646;8.906;2023-05-16T13:12:50;96233.84;;;8.68;100.00
4598;BME280;62772;48.646;8.906;2023-05-16T13:17:51;96230.50;;;8.35;100.00
4598;BME280;62772;48.646;8.906;2023-05-16T13:22:51;96241.56;;;8.42;100.00
4598;BME280;62772;48.646;8.906;2023-05-16T13:27:52;96235.44;;;8.56;100.00
4598;BME280;62772;48.646;8.906;2023-05-16T13:32:52;96243.03;;;8.62;100.00
4598;BME280;62772;48.646;8.906;2023-05-16T13:37:53;96239.13;;;8.96;100.00
4598;BME280;62772;48.646;8.906;2023-05-16T13:42:53;96250.88;;;9.18;100.00
4598;BME280;62772;48.646;8.906;2023-05-16T13:47:54;96253.91;;;9.02;100.00
4598;BME280;62772;48.646;8.906;2023-05-16T13:52:54;96256.38;;;8.99;100.00
4598;BME280;62772;48.646;8.906;2023-05-16T13:57:55;96255.09;;;8.96;100.00
4598;BME280;62772;48.646;8.906;2023-05-16T14:02:55;96261.19;;;8.97;100.00
4598;BME280;62772;48.646;8.906;2023-05-16T14:07:56;96267.28;;;9.11;100.00
4598;BME280;62772;48.646;8.906;2023-05-16T14:12:56;96276.38;;;9.10;100.00
4598;BME280;62772;48.646;8.906;2023-05-16T14:17:56;96262.81;;;9.20;100.00
4598;BME280;62772;48.646;8.906;2023-05-16T14:22:58;96246.22;;;9.23;100.00
4598;BME280;62772;48.646;8.906;2023-05-16T14:27:59;96241.31;;;9.17;100.00
4598;BME280;62772;48.646;8.906;2023-05-16T14:33:00;96251.75;;;9.50;100.00
4598;BME280;62772;48.646;8.906;2023-05-16T14:38:01;96260.38;;;9.55;100.00
4598;BME280;62772;48.646;8.906;2023-05-16T14:43:01;96260.00;;;9.71;100.00
4598;BME280;62772;48.646;8.906;2023-05-16T14:48:05;96267.31;;;9.88;100.00
4598;BME280;62772;48.646;8.906;2023-05-16T14:53:07;96271.91;;;9.65;100.00
4598;BME280;62772;48.646;8.906;2023-05-16T14:58:07;96282.31;;;9.75;100.00
4598;BME280;62772;48.646;8.906;2023-05-16T15:03:08;96282.44;;;9.70;100.00
4598;BME280;62772;48.646;8.906;2023-05-16T15:08:08;96287.94;;;9.73;100.00
4598;BME280;62772;48.646;8.906;2023-05-16T15:13:09;96302.00;;;9.65;100.00
4598;BME280;62772;48.646;8.906;2023-05-16T15:18:10;96294.56;;;9.76;100.00
4598;BME280;62772;48.646;8.906;2023-05-16T15:23:10;96301.97;;;9.56;100.00
4598;BME280;62772;48.646;8.906;2023-05-16T15:28:11;96303.78;;;9.47;100.00
4598;BME280;62772;48.646;8.906;2023-05-16T15:33:11;96289.84;;;9.50;100.00
4598;BME280;62772;48.646;8.906;2023-05-16T15:38:12;96296.69;;;9.65;100.00
4598;BME280;62772;48.646;8.906;2023-05-16T15:43:13;96307.13;;;9.75;100.00
4598;BME280;62772;48.646;8.906;2023-05-16T15:48:13;96304.19;;;9.63;100.00
4598;BME280;62772;48.646;8.906;2023-05-16T15:53:14;96306.00;;;9.54;100.00
4598;BME280;62772;48.646;8.906;2023-05-16T15:58:14;96308.19;;;9.52;100.00
4598;BME280;62772;48.646;8.906;2023-05-16T16:03:14;96317.72;;;9.44;100.00
4598;BME280;62772;48.646;8.906;2023-05-16T16:08:16;96316.66;;;9.31;100.00
4598;BME280;62772;48.646;8.906;2023-05-16T16:13:17;96309.03;;;9.38;100.00
4598;BME280;62772;48.646;8.906;2023-05-16T16:18:17;96311.97;;;9.14;100.00
4598;BME280;62772;48.646;8.906;2023-05-16T16:23:18;96305.06;;;9.50;100.00
4598;BME280;62772;48.646;8.906;2023-05-16T16:28:18;96314.38;;;9.61;100.00
4598;BME280;62772;48.646;8.906;2023-05-16T16:33:19;96325.53;;;9.63;100.00
4598;BME280;62772;48.646;8.906;2023-05-16T16:38:20;96316.66;;;9.31;100.00
4598;BME280;62772;48.646;8.906;2023-05-16T16:43:20;96313.84;;;9.50;100.00
4598;BME280;62772;48.646;8.906;2023-05-16T16:48:21;96319.75;;;9.70;100.00
4598;BME280;62772;48.646;8.906;2023-05-16T16:53:21;96321.53;;;9.52;100.00
4598;BME280;62772;48.646;8.906;2023-05-16T16:58:22;96331.56;;;9.32;100.00
4598;BME280;62772;48.646;8.906;2023-05-16T17:03:23;96336.94;;;9.55;100.00
4598;BME280;62772;48.646;8.906;2023-05-16T17:08:23;96333.16;;;9.56;100.00
4598;BME280;62772;48.646;8.906;2023-05-16T17:13:24;96341.06;;;9.61;100.00
4598;BME280;62772;48.646;8.906;2023-05-16T17:18:25;96341.16;;;9.56;100.00
4598;BME280;62772;48.646;8.906;2023-05-16T17:23:26;96346.13;;;9.71;100.00
4598;BME280;62772;48.646;8.906;2023-05-16T17:28:26;96345.56;;;9.38;100.00
4598;BME280;62772;48.646;8.906;2023-05-16T17:33:27;96352.63;;;9.56;100.00
4598;BME280;62772;48.646;8.906;2023-05-16T17:38:32;96352.50;;;9.61;100.00
4598;BME280;62772;48.646;8.906;2023-05-16T17:43:33;96359.25;;;9.82;100.00
4598;BME280;62772;48.646;8.906;2023-05-16T17:48:34;96360.13;;;9.54;100.00
4598;BME280;62772;48.646;8.906;2023-05-16T17:53:34;96365.78;;;9.75;100.00
4598;BME280;62772;48.646;8.906;2023-05-16T17:58:36;96360.25;;;9.72;100.00
4598;BME280;62772;48.646;8.906;2023-05-16T18:03:38;96366.88;;;9.74;100.00
4598;BME280;62772;48.646;8.906;2023-05-16T18:08:40;96374.38;;;9.72;100.00
4598;BME280;62772;48.646;8.906;2023-05-16T18:13:41;96373.72;;;9.30;100.00
4598;BME280;62772;48.646;8.906;2023-05-16T18:18:41;96375.91;;;9.65;100.00
4598;BME280;62772;48.646;8.906;2023-05-16T18:23:42;96376.56;;;9.70;100.00
4598;BME280;62772;48.646;8.906;2023-05-16T18:28:42;96384.81;;;9.46;100.00
4598;BME280;62772;48.646;8.906;2023-05-16T18:33:43;96389.25;;;9.51;100.00
4598;BME280;62772;48.646;8.906;2023-05-16T18:38:44;96400.34;;;9.44;100.00
4598;BME280;62772;48.646;8.906;2023-05-16T18:43:44;96406.31;;;9.13;100.00
4598;BME280;62772;48.646;8.906;2023-05-16T18:48:44;96406.50;;;9.31;100.00
4598;BME280;62772;48.646;8.906;2023-05-16T18:53:45;96411.44;;;9.10;100.00
4598;BME280;62772;48.646;8.906;2023-05-16T18:58:45;96407.69;;;8.97;100.00
4598;BME280;62772;48.646;8.906;2023-05-16T19:03:47;96425.97;;;8.89;100.00
4598;BME280;62772;48.646;8.906;2023-05-16T19:08:50;96427.72;;;8.80;100.00
4598;BME280;62772;48.646;8.906;2023-05-16T19:13:51;96431.56;;;8.74;100.00
4598;BME280;62772;48.646;8.906;2023-05-16T19:18:51;96428.69;;;8.84;98.27
4598;BME280;62772;48.646;8.906;2023-05-16T19:23:52;96437.00;;;8.83;95.25
4598;BME280;62772;48.646;8.906;2023-05-16T19:28:52;96446.53;;;8.56;95.07
4598;BME280;62772;48.646;8.906;2023-05-16T19:33:53;96457.66;;;8.25;99.39
4598;BME280;62772;48.646;8.906;2023-05-16T19:38:53;96463.59;;;8.55;96.16
4598;BME280;62772;48.646;8.906;2023-05-16T19:43:54;96469.38;;;8.43;93.42
4598;BME280;62772;48.646;8.906;2023-05-16T19:48:55;96471.22;;;8.43;93.50
4598;BME280;62772;48.646;8.906;2023-05-16T19:53:55;96480.84;;;8.58;93.75
4598;BME280;62772;48.646;8.906;2023-05-16T19:58:55;96488.22;;;8.47;94.79
4598;BME280;62772;48.646;8.906;2023-05-16T20:03:57;96481.59;;;8.25;95.26
4598;BME280;62772;48.646;8.906;2023-05-16T20:08:59;96488.34;;;8.36;98.01
4598;BME280;62772;48.646;8.906;2023-05-16T20:14:00;96489.25;;;7.94;98.01
4598;BME280;62772;48.646;8.906;2023-05-16T20:19:00;96493.56;;;7.90;100.00
4598;BME280;62772;48.646;8.906;2023-05-16T20:24:01;96499.00;;;7.98;100.00
4598;BME280;62772;48.646;8.906;2023-05-16T20:29:01;96505.28;;;7.89;100.00
4598;BME280;62772;48.646;8.906;2023-05-16T20:34:02;96500.03;;;7.65;100.00
4598;BME280;62772;48.646;8.906;2023-05-16T20:39:17;96510.75;;;7.97;99.09
4598;BME280;62772;48.646;8.906;2023-05-16T20:44:22;96515.75;;;7.61;100.00
4598;BME280;62772;48.646;8.906;2023-05-16T20:49:23;96526.13;;;7.81;99.75
4598;BME280;62772;48.646;8.906;2023-05-16T20:54:23;96526.34;;;7.85;99.89
4598;BME280;62772;48.646;8.906;2023-05-16T20:59:24;96530.19;;;7.31;100.00
4598;BME280;62772;48.646;8.906;2023-05-16T21:04:25;96527.03;;;7.29;100.00
4598;BME280;62772;48.646;8.906;2023-05-16T21:09:25;96529.22;;;6.97;100.00
4598;BME280;62772;48.646;8.906;2023-05-16T21:14:26;96530.28;;;7.20;100.00
4598;BME280;62772;48.646;8.906;2023-05-16T21:19:26;96541.69;;;6.97;100.00
4598;BME280;62772;48.646;8.906;2023-05-16T21:24:29;96536.97;;;6.94;100.00
4598;BME280;62772;48.646;8.906;2023-05-16T21:29:31;96540.56;;;7.03;100.00
4598;BME280;62772;48.646;8.906;2023-05-16T21:34:31;96541.59;;;7.31;100.00
4598;BME280;62772;48.646;8.906;2023-05-16T21:39:32;96541.81;;;7.35;98.88
4598;BME280;62772;48.646;8.906;2023-05-16T21:44:32;96551.53;;;6.96;100.00
4598;BME280;62772;48.646;8.906;2023-05-16T21:49:32;96549.75;;;7.40;99.04
4598;BME280;62772;48.646;8.906;2023-05-16T21:54:34;96562.13;;;7.50;100.00
4598;BME280;62772;48.646;8.906;2023-05-16T21:59:34;96575.91;;;7.52;100.00
4598;BME280;62772;48.646;8.906;2023-05-16T22:04:35;96569.53;;;7.29;100.00
4598;BME280;62772;48.646;8.906;2023-05-16T22:09:35;96566.97;;;7.18;100.00
4598;BME280;62772;48.646;8.906;2023-05-16T22:14:36;96575.03;;;7.37;100.00
4598;BME280;62772;48.646;8.906;2023-05-16T22:19:36;96576.16;;;7.31;100.00
4598;BME280;62772;48.646;8.906;2023-05-16T22:24:37;96581.16;;;6.79;100.00
4598;BME280;62772;48.646;8.906;2023-05-16T22:29:38;96573.16;;;6.84;100.00
4598;BME280;62772;48.646;8.906;2023-05-16T22:34:38;96582.16;;;6.83;100.00
4598;BME280;62772;48.646;8.906;2023-05-16T22:39:38;96584.22;;;6.23;100.00
4598;BME280;62772;48.646;8.906;2023-05-16T22:44:39;96581.78;;;6.66;100.00
4598;BME280;62772;48.646;8.906;2023-05-16T22:49:40;96582.44;;;6.52;100.00
4598;BME280;62772;48.646;8.906;2023-05-16T22:54:40;96580.66;;;6.38;100.00
4598;BME280;62772;48.646;8.906;2023-05-16T22:59:41;96587.78;;;6.42;100.00
4598;BME280;62772;48.646;8.906;2023-05-16T23:04:42;96585.81;;;6.18;100.00
4598;BME280;62772;48.646;8.906;2023-05-16T23:09:43;96587.34;;;6.30;100.00
4598;BME280;62772;48.646;8.906;2023-05-16T23:14:43;96585.38;;;6.01;100.00
4598;BME280;62772;48.646;8.906;2023-05-16T23:19:43;96590.63;;;6.11;100.00
4598;BME280;62772;48.646;8.906;2023-05-16T23:24:44;96599.00;;;6.34;100.00
4598;BME280;62772;48.646;8.906;2023-05-16T23:29:44;96600.41;;;6.21;100.00
4598;BME280;62772;48.646;8.906;2023-05-16T23:34:45;96597.53;;;6.07;100.00
4598;BME280;62772;48.646;8.906;2023-05-16T23:39:45;96606.38;;;5.87;100.00
4598;BME280;62772;48.646;8.906;2023-05-16T23:44:45;96607.13;;;6.03;100.00
4598;BME280;62772;48.646;8.906;2023-05-16T23:49:46;96609.69;;;6.18;100.00
4598;BME280;62772;48.646;8.906;2023-05-16T23:54:46;96609.53;;;5.89;100.00
4598;BME280;62772;48.646;8.906;2023-05-16T23:59:47;96615.09;;;6.03;100.00
